sensor_id;sensor_type;location;lat;lon;timestamp;temperature;humidity
18882;DHT22;9573;50.948;11.600;2022-12-11T05:22:34;-1.20;99.90
18882;DHT22;9573;50.948;11.600;2022-12-11T05:25:02;-1.10;99.90
18882;DHT22;9573;50.948;11.600;2022-12-11T05:27:29;-1.10;99.90
18882;DHT22;9573;50.948;11.600;2022-12-11T05:29:56;-1.00;99.90
18882;DHT22;9573;50.948;11.600;2022-12-11T05:32:23;-0.90;99.90
18882;DHT22;9573;50.948;11.600;2022-12-11T05:34:51;-0.80;99.90
18882;DHT22;9573;50.948;11.600;2022-12-11T05:37:18;-0.70;99.90
18882;DHT22;9573;50.948;11.600;2022-12-11T05:39:46;-0.60;99.90
18882;DHT22;9573;50.948;11.600;2022-12-11T05:42:13;-0.60;99.90
18882;DHT22;9573;50.948;11.600;2022-12-11T05:44:40;-0.50;99.90
18882;DHT22;9573;50.948;11.600;2022-12-11T05:47:07;-0.50;99.90
18882;DHT22;9573;50.948;11.600;2022-12-11T05:49:35;-0.40;99.90
18882;DHT22;9573;50.948;11.600;2022-12-11T05:52:03;-0.40;99.90
18882;DHT22;9573;50.948;11.600;2022-12-11T05:54:30;-0.40;99.90
18882;DHT22;9573;50.948;11.600;2022-12-11T05:56:58;-0.40;99.90
18882;DHT22;9573;50.948;11.600;2022-12-11T05:59:26;-0.30;99.90
18882;DHT22;9573;50.948;11.600;2022-12-11T06:01:53;-0.30;99.90
18882;DHT22;9573;50.948;11.600;2022-12-11T06:04:20;0.50;99.90
18882;DHT22;9573;50.948;11.600;2022-12-11T06:06:47;-0.30;99.90
18882;DHT22;9573;50.948;11.600;2022-12-11T06:09:15;-0.30;99.90
18882;DHT22;9573;50.948;11.600;2022-12-11T06:11:42;-0.40;99.90
18882;DHT22;9573;50.948;11.600;2022-12-11T06:14:11;-0.40;99.90
18882;DHT22;9573;50.948;11.600;2022-12-11T06:16:38;-0.40;99.90
18882;DHT22;9573;50.948;11.600;2022-12-11T06:19:06;-0.50;99.90
18882;DHT22;9573;50.948;11.600;2022-12-11T06:21:38;-0.50;99.90
18882;DHT22;9573;50.948;11.600;2022-12-11T06:24:09;-0.40;99.90
18882;DHT22;9573;50.948;11.600;2022-12-11T06:26:36;-0.50;99.90
18882;DHT22;9573;50.948;11.600;2022-12-11T06:29:03;-0.50;99.90
18882;DHT22;9573;50.948;11.600;2022-12-11T06:31:32;-0.50;99.90
18882;DHT22;9573;50.948;11.600;2022-12-11T06:33:59;-0.50;99.90
18882;DHT22;9573;50.948;11.600;2022-12-11T06:36:26;-0.50;99.90
18882;DHT22;9573;50.948;11.600;2022-12-11T06:38:53;-0.50;99.90
18882;DHT22;9573;50.948;11.600;2022-12-11T06:41:21;-0.50;99.90
18882;DHT22;9573;50.948;11.600;2022-12-11T06:43:48;-0.40;99.90
18882;DHT22;9573;50.948;11.600;2022-12-11T06:46:19;-0.40;99.90
18882;DHT22;9573;50.948;11.600;2022-12-11T06:48:48;-0.40;99.90
18882;DHT22;9573;50.948;11.600;2022-12-11T06:51:18;-0.40;99.90
18882;DHT22;9573;50.948;11.600;2022-12-11T06:53:52;-0.40;99.90
18882;DHT22;9573;50.948;11.600;2022-12-11T06:56:25;-0.40;99.90
18882;DHT22;9573;50.948;11.600;2022-12-11T06:58:55;-0.40;99.90
18882;DHT22;9573;50.948;11.600;2022-12-11T07:01:23;-0.40;99.90
18882;DHT22;9573;50.948;11.600;2022-12-11T07:03:54;-0.20;99.90
18882;DHT22;9573;50.948;11.600;2022-12-11T07:06:23;-0.30;99.90
18882;DHT22;9573;50.948;11.600;2022-12-11T07:08:51;-0.40;99.90
18882;DHT22;9573;50.948;11.600;2022-12-11T07:11:28;-0.40;99.90
18882;DHT22;9573;50.948;11.600;2022-12-11T07:13:57;-0.40;99.90
18882;DHT22;9573;50.948;11.600;2022-12-11T07:16:25;-0.40;99.90
18882;DHT22;9573;50.948;11.600;2022-12-11T07:18:54;-0.40;99.90
18882;DHT22;9573;50.948;11.600;2022-12-11T07:21:21;-0.40;99.90
18882;DHT22;9573;50.948;11.600;2022-12-11T07:23:48;-0.30;99.90
18882;DHT22;9573;50.948;11.600;2022-12-11T07:26:18;-0.30;99.90
18882;DHT22;9573;50.948;11.600;2022-12-11T07:28:46;-0.30;99.90
18882;DHT22;9573;50.948;11.600;2022-12-11T07:31:15;-0.20;99.90
18882;DHT22;9573;50.948;11.600;2022-12-11T07:33:45;-0.30;99.90
18882;DHT22;9573;50.948;11.600;2022-12-11T07:36:14;-0.30;99.90
18882;DHT22;9573;50.948;11.600;2022-12-11T07:38:41;-0.30;99.90
18882;DHT22;9573;50.948;11.600;2022-12-11T07:41:15;-0.30;99.90
18882;DHT22;9573;50.948;11.600;2022-12-11T07:43:42;-0.30;99.90
18882;DHT22;9573;50.948;11.600;2022-12-11T07:46:12;-0.30;99.90
18882;DHT22;9573;50.948;11.600;2022-12-11T07:48:42;-0.30;99.90
18882;DHT22;9573;50.948;11.600;2022-12-11T07:51:12;-0.30;99.90
18882;DHT22;9573;50.948;11.600;2022-12-11T07:53:46;-0.30;99.90
18882;DHT22;9573;50.948;11.600;2022-12-11T07:56:15;-0.20;99.90
18882;DHT22;9573;50.948;11.600;2022-12-11T07:58:51;-0.20;99.90
18882;DHT22;9573;50.948;11.600;2022-12-11T08:01:20;-0.20;99.90
18882;DHT22;9573;50.948;11.600;2022-12-11T08:03:48;-0.20;99.90
18882;DHT22;9573;50.948;11.600;2022-12-11T08:06:18;-0.10;99.90
18882;DHT22;9573;50.948;11.600;2022-12-11T08:08:46;-0.10;99.90
18882;DHT22;9573;50.948;11.600;2022-12-11T08:11:14;-0.10;99.90
18882;DHT22;9573;50.948;11.600;2022-12-11T08:13:42;0.00;99.90
18882;DHT22;9573;50.948;11.600;2022-12-11T08:16:11;0.00;99.90
18882;DHT22;9573;50.948;11.600;2022-12-11T08:18:40;0.00;99.90
18882;DHT22;9573;50.948;11.600;2022-12-11T08:21:09;0.00;99.90
18882;DHT22;9573;50.948;11.600;2022-12-11T08:23:39;0.00;99.90
18882;DHT22;9573;50.948;11.600;2022-12-11T08:26:09;0.00;99.90
18882;DHT22;9573;50.948;11.600;2022-12-11T08:28:38;0.00;99.90
18882;DHT22;9573;50.948;11.600;2022-12-11T08:31:07;0.00;99.90
18882;DHT22;9573;50.948;11.600;2022-12-11T08:33:37;0.00;99.90
18882;DHT22;9573;50.948;11.600;2022-12-11T08:36:05;-0.10;99.90
18882;DHT22;9573;50.948;11.600;2022-12-11T08:38:34;-0.10;99.90
18882;DHT22;9573;50.948;11.600;2022-12-11T08:41:08;-0.10;99.90
18882;DHT22;9573;50.948;11.600;2022-12-11T08:43:36;-0.10;99.90
18882;DHT22;9573;50.948;11.600;2022-12-11T08:46:05;-0.10;99.90
18882;DHT22;9573;50.948;11.600;2022-12-11T08:48:33;-0.10;99.90
18882;DHT22;9573;50.948;11.600;2022-12-11T08:51:02;-0.20;99.90
18882;DHT22;9573;50.948;11.600;2022-12-11T08:53:31;-0.20;99.90
18882;DHT22;9573;50.948;11.600;2022-12-11T08:56:06;0.00;99.90
18882;DHT22;9573;50.948;11.600;2022-12-11T08:58:36;-0.10;99.90
18882;DHT22;9573;50.948;11.600;2022-12-11T09:01:05;-0.10;99.90
18882;DHT22;9573;50.948;11.600;2022-12-11T09:03:40;-0.10;99.90
18882;DHT22;9573;50.948;11.600;2022-12-11T09:06:09;0.00;99.90
18882;DHT22;9573;50.948;11.600;2022-12-11T09:08:39;0.10;99.90
18882;DHT22;9573;50.948;11.600;2022-12-11T09:11:10;0.20;99.90
18882;DHT22;9573;50.948;11.600;2022-12-11T09:13:39;0.30;99.90
18882;DHT22;9573;50.948;11.600;2022-12-11T09:16:08;0.30;99.90
18882;DHT22;9573;50.948;11.600;2022-12-11T09:18:36;0.40;99.90
18882;DHT22;9573;50.948;11.600;2022-12-11T09:21:06;0.50;99.90
18882;DHT22;9573;50.948;11.600;2022-12-11T09:23:35;0.60;99.90
18882;DHT22;9573;50.948;11.600;2022-12-11T09:26:04;0.60;99.90
18882;DHT22;9573;50.948;11.600;2022-12-11T09:28:33;0.70;99.90
18882;DHT22;9573;50.948;11.600;2022-12-11T09:31:00;0.70;99.90
18882;DHT22;9573;50.948;11.600;2022-12-11T09:33:28;0.80;99.90
18882;DHT22;9573;50.948;11.600;2022-12-11T09:35:58;1.00;99.90
18882;DHT22;9573;50.948;11.600;2022-12-11T09:38:27;1.00;99.90
18882;DHT22;9573;50.948;11.600;2022-12-11T09:40:55;1.00;99.90
18882;DHT22;9573;50.948;11.600;2022-12-11T09:43:35;1.00;99.90
18882;DHT22;9573;50.948;11.600;2022-12-11T09:46:08;1.00;99.90
18882;DHT22;9573;50.948;11.600;2022-12-11T09:48:37;1.00;99.90
18882;DHT22;9573;50.948;11.600;2022-12-11T09:51:13;1.00;99.90
18882;DHT22;9573;50.948;11.600;2022-12-11T09:53:44;1.00;99.90
18882;DHT22;9573;50.948;11.600;2022-12-11T09:56:17;1.00;99.90
18882;DHT22;9573;50.948;11.600;2022-12-11T09:58:59;1.00;99.90
18882;DHT22;9573;50.948;11.600;2022-12-11T10:01:34;1.10;99.90
18882;DHT22;9573;50.948;11.600;2022-12-11T10:04:31;1.00;99.90
18882;DHT22;9573;50.948;11.600;2022-12-11T10:07:11;1.10;99.90
18882;DHT22;9573;50.948;11.600;2022-12-11T10:09:49;1.20;99.90
18882;DHT22;9573;50.948;11.600;2022-12-11T10:12:30;1.20;99.90
18882;DHT22;9573;50.948;11.600;2022-12-11T10:15:18;1.30;99.90
18882;DHT22;9573;50.948;11.600;2022-12-11T10:17:54;1.40;99.90
18882;DHT22;9573;50.948;11.600;2022-12-11T10:20:24;1.50;99.90
18882;DHT22;9573;50.948;11.600;2022-12-11T10:22:56;1.50;99.90
18882;DHT22;9573;50.948;11.600;2022-12-11T10:25:26;1.50;99.90
18882;DHT22;9573;50.948;11.600;2022-12-11T10:27:56;1.60;99.90
18882;DHT22;9573;50.948;11.600;2022-12-11T10:30:26;1.50;99.90
18882;DHT22;9573;50.948;11.600;2022-12-11T10:33:01;1.40;99.90
18882;DHT22;9573;50.948;11.600;2022-12-11T10:35:35;1.50;99.90
18882;DHT22;9573;50.948;11.600;2022-12-11T10:38:12;1.60;99.90
18882;DHT22;9573;50.948;11.600;2022-12-11T10:40:44;1.70;99.90
18882;DHT22;9573;50.948;11.600;2022-12-11T10:43:13;1.80;99.90
18882;DHT22;9573;50.948;11.600;2022-12-11T10:45:51;1.80;99.90
18882;DHT22;9573;50.948;11.600;2022-12-11T10:48:22;1.90;99.90
18882;DHT22;9573;50.948;11.600;2022-12-11T10:50:59;1.80;99.90
18882;DHT22;9573;50.948;11.600;2022-12-11T10:53:30;1.80;99.90
18882;DHT22;9573;50.948;11.600;2022-12-11T10:55:59;1.70;99.90
18882;DHT22;9573;50.948;11.600;2022-12-11T10:58:31;1.70;99.90
18882;DHT22;9573;50.948;11.600;2022-12-11T11:01:05;1.60;99.90
18882;DHT22;9573;50.948;11.600;2022-12-11T11:03:35;1.60;99.90
18882;DHT22;9573;50.948;11.600;2022-12-11T11:06:15;1.60;99.90
18882;DHT22;9573;50.948;11.600;2022-12-11T11:08:49;1.60;99.90
18882;DHT22;9573;50.948;11.600;2022-12-11T11:11:22;1.60;99.90
18882;DHT22;9573;50.948;11.600;2022-12-11T11:13:51;1.60;99.90
18882;DHT22;9573;50.948;11.600;2022-12-11T11:16:34;1.60;99.90
18882;DHT22;9573;50.948;11.600;2022-12-11T11:19:03;1.60;99.90
18882;DHT22;9573;50.948;11.600;2022-12-11T11:21:33;1.50;99.90
18882;DHT22;9573;50.948;11.600;2022-12-11T11:24:00;1.40;99.90
18882;DHT22;9573;50.948;11.600;2022-12-11T11:26:30;1.30;99.90
18882;DHT22;9573;50.948;11.600;2022-12-11T11:28:58;1.20;99.90
18882;DHT22;9573;50.948;11.600;2022-12-11T11:31:32;1.10;99.90
18882;DHT22;9573;50.948;11.600;2022-12-11T11:34:01;0.90;99.90
18882;DHT22;9573;50.948;11.600;2022-12-11T11:36:34;0.80;99.90
18882;DHT22;9573;50.948;11.600;2022-12-11T11:39:13;0.70;99.90
18882;DHT22;9573;50.948;11.600;2022-12-11T11:41:48;0.60;99.90
18882;DHT22;9573;50.948;11.600;2022-12-11T11:44:25;0.50;99.90
18882;DHT22;9573;50.948;11.600;2022-12-11T11:47:01;0.50;99.90
18882;DHT22;9573;50.948;11.600;2022-12-11T11:49:43;0.40;99.90
18882;DHT22;9573;50.948;11.600;2022-12-11T11:52:20;0.30;99.90
18882;DHT22;9573;50.948;11.600;2022-12-11T11:54:55;0.20;99.90
18882;DHT22;9573;50.948;11.600;2022-12-11T11:57:34;0.10;99.90
18882;DHT22;9573;50.948;11.600;2022-12-11T12:00:17;0.00;99.90
18882;DHT22;9573;50.948;11.600;2022-12-11T12:02:47;0.00;99.90
18882;DHT22;9573;50.948;11.600;2022-12-11T12:05:18;0.00;99.90
18882;DHT22;9573;50.948;11.600;2022-12-11T12:07:53;0.00;99.90
18882;DHT22;9573;50.948;11.600;2022-12-11T12:10:33;0.00;99.90
18882;DHT22;9573;50.948;11.600;2022-12-11T12:13:09;0.20;99.90
18882;DHT22;9573;50.948;11.600;2022-12-11T12:15:49;0.00;99.90
18882;DHT22;9573;50.948;11.600;2022-12-11T12:18:29;0.00;99.90
18882;DHT22;9573;50.948;11.600;2022-12-11T12:21:11;0.00;99.90
18882;DHT22;9573;50.948;11.600;2022-12-11T12:24:12;0.00;99.90
18882;DHT22;9573;50.948;11.600;2022-12-11T12:26:45;0.10;99.90
18882;DHT22;9573;50.948;11.600;2022-12-11T12:29:22;0.10;99.90
18882;DHT22;9573;50.948;11.600;2022-12-11T12:32:04;0.00;99.90
18882;DHT22;9573;50.948;11.600;2022-12-11T12:34:53;0.00;99.90
18882;DHT22;9573;50.948;11.600;2022-12-11T12:37:44;0.00;99.90
18882;DHT22;9573;50.948;11.600;2022-12-11T12:40:22;0.00;99.90
18882;DHT22;9573;50.948;11.600;2022-12-11T12:43:03;0.00;99.90
18882;DHT22;9573;50.948;11.600;2022-12-11T12:45:38;0.00;99.90
18882;DHT22;9573;50.948;11.600;2022-12-11T12:48:08;0.00;99.90
18882;DHT22;9573;50.948;11.600;2022-12-11T12:50:40;-0.10;99.90
18882;DHT22;9573;50.948;11.600;2022-12-11T12:53:15;0.00;99.90
18882;DHT22;9573;50.948;11.600;2022-12-11T12:55:46;-0.10;99.90
18882;DHT22;9573;50.948;11.600;2022-12-11T12:58:25;-0.10;99.90
18882;DHT22;9573;50.948;11.600;2022-12-11T13:00:54;-0.10;99.90
18882;DHT22;9573;50.948;11.600;2022-12-11T13:03:47;-0.10;99.90
18882;DHT22;9573;50.948;11.600;2022-12-11T13:06:28;-0.10;99.90
18882;DHT22;9573;50.948;11.600;2022-12-11T13:08:57;-0.10;99.90
18882;DHT22;9573;50.948;11.600;2022-12-11T13:11:35;-0.10;99.90
18882;DHT22;9573;50.948;11.600;2022-12-11T13:14:04;-0.10;99.90
18882;DHT22;9573;50.948;11.600;2022-12-11T13:16:37;-0.10;99.90
18882;DHT22;9573;50.948;11.600;2022-12-11T13:19:16;-0.10;99.90
18882;DHT22;9573;50.948;11.600;2022-12-11T13:21:57;-0.20;99.90
18882;DHT22;9573;50.948;11.600;2022-12-11T13:24:30;-0.20;99.90
18882;DHT22;9573;50.948;11.600;2022-12-11T13:27:08;-0.30;99.90
18882;DHT22;9573;50.948;11.600;2022-12-11T13:29:38;-0.30;99.90
18882;DHT22;9573;50.948;11.600;2022-12-11T13:32:21;-0.20;99.90
18882;DHT22;9573;50.948;11.600;2022-12-11T13:34:55;-0.20;99.90
18882;DHT22;9573;50.948;11.600;2022-12-11T13:37:28;-0.10;99.90
18882;DHT22;9573;50.948;11.600;2022-12-11T13:40:00;-0.20;99.90
18882;DHT22;9573;50.948;11.600;2022-12-11T13:42:35;-0.10;99.90
18882;DHT22;9573;50.948;11.600;2022-12-11T13:45:14;-0.10;99.90
18882;DHT22;9573;50.948;11.600;2022-12-11T13:47:45;-0.20;99.90
18882;DHT22;9573;50.948;11.600;2022-12-11T13:50:16;-0.20;99.90
18882;DHT22;9573;50.948;11.600;2022-12-11T13:52:53;-0.20;99.90
18882;DHT22;9573;50.948;11.600;2022-12-11T13:55:24;-0.20;99.90
18882;DHT22;9573;50.948;11.600;2022-12-11T13:57:53;-0.20;99.90
18882;DHT22;9573;50.948;11.600;2022-12-11T14:00:22;-0.20;99.90
18882;DHT22;9573;50.948;11.600;2022-12-11T14:02:51;-0.20;99.90
18882;DHT22;9573;50.948;11.600;2022-12-11T14:05:19;-0.30;99.90
18882;DHT22;9573;50.948;11.600;2022-12-11T14:07:48;-0.20;99.90
18882;DHT22;9573;50.948;11.600;2022-12-11T14:10:20;-0.20;99.90
18882;DHT22;9573;50.948;11.600;2022-12-11T14:12:51;-0.20;99.90
18882;DHT22;9573;50.948;11.600;2022-12-11T14:15:21;-0.20;99.90
18882;DHT22;9573;50.948;11.600;2022-12-11T14:17:48;-0.10;99.90
18882;DHT22;9573;50.948;11.600;2022-12-11T14:20:18;-0.10;99.90
18882;DHT22;9573;50.948;11.600;2022-12-11T14:22:48;0.00;99.90
18882;DHT22;9573;50.948;11.600;2022-12-11T14:25:20;-0.10;99.90
18882;DHT22;9573;50.948;11.600;2022-12-11T14:27:51;0.00;99.90
18882;DHT22;9573;50.948;11.600;2022-12-11T14:30:21;0.00;99.90
18882;DHT22;9573;50.948;11.600;2022-12-11T14:32:49;-0.10;99.90
18882;DHT22;9573;50.948;11.600;2022-12-11T14:35:24;-0.10;99.90
18882;DHT22;9573;50.948;11.600;2022-12-11T14:37:53;-0.20;99.90
18882;DHT22;9573;50.948;11.600;2022-12-11T14:40:25;-0.20;99.90
18882;DHT22;9573;50.948;11.600;2022-12-11T14:42:57;-0.10;99.90
18882;DHT22;9573;50.948;11.600;2022-12-11T14:45:32;-0.20;99.90
18882;DHT22;9573;50.948;11.600;2022-12-11T14:48:01;-0.30;99.90
18882;DHT22;9573;50.948;11.600;2022-12-11T14:50:36;-0.30;99.90
18882;DHT22;9573;50.948;11.600;2022-12-11T14:53:09;-0.30;99.90
18882;DHT22;9573;50.948;11.600;2022-12-11T14:55:41;-0.30;99.90
18882;DHT22;9573;50.948;11.600;2022-12-11T14:58:15;-0.30;99.90
18882;DHT22;9573;50.948;11.600;2022-12-11T15:00:55;-0.40;99.90
18882;DHT22;9573;50.948;11.600;2022-12-11T15:03:30;-1.90;99.90
18882;DHT22;9573;50.948;11.600;2022-12-11T15:06:00;1.20;99.90
18882;DHT22;9573;50.948;11.600;2022-12-11T15:08:30;-0.70;99.90
18882;DHT22;9573;50.948;11.600;2022-12-11T15:11:05;-0.70;99.90
18882;DHT22;9573;50.948;11.600;2022-12-11T15:13:36;-0.90;99.90
18882;DHT22;9573;50.948;11.600;2022-12-11T15:16:06;-0.90;99.90
18882;DHT22;9573;50.948;11.600;2022-12-11T15:18:36;-1.00;99.90
18882;DHT22;9573;50.948;11.600;2022-12-11T15:21:08;-1.00;99.90
18882;DHT22;9573;50.948;11.600;2022-12-11T15:23:48;-1.10;99.90
18882;DHT22;9573;50.948;11.600;2022-12-11T15:26:18;-1.20;99.90
18882;DHT22;9573;50.948;11.600;2022-12-11T15:28:46;-1.10;99.90
18882;DHT22;9573;50.948;11.600;2022-12-11T15:31:24;-1.20;99.90
18882;DHT22;9573;50.948;11.600;2022-12-11T15:33:53;-1.10;99.90
18882;DHT22;9573;50.948;11.600;2022-12-11T15:36:24;-1.10;99.90
18882;DHT22;9573;50.948;11.600;2022-12-11T15:38:56;-1.10;99.90
18882;DHT22;9573;50.948;11.600;2022-12-11T15:41:26;-1.10;99.90
18882;DHT22;9573;50.948;11.600;2022-12-11T15:44:00;-1.00;99.90
18882;DHT22;9573;50.948;11.600;2022-12-11T15:46:29;-1.00;99.90
18882;DHT22;9573;50.948;11.600;2022-12-11T15:49:00;-1.00;99.90
18882;DHT22;9573;50.948;11.600;2022-12-11T15:51:28;-1.00;99.90
18882;DHT22;9573;50.948;11.600;2022-12-11T15:53:55;-1.00;99.90
18882;DHT22;9573;50.948;11.600;2022-12-11T15:56:22;-0.90;99.90
18882;DHT22;9573;50.948;11.600;2022-12-11T15:58:50;-1.00;99.90
18882;DHT22;9573;50.948;11.600;2022-12-11T16:01:17;-0.90;99.90
18882;DHT22;9573;50.948;11.600;2022-12-11T16:03:45;-0.90;99.90
18882;DHT22;9573;50.948;11.600;2022-12-11T16:06:15;-0.20;99.90
18882;DHT22;9573;50.948;11.600;2022-12-11T16:08:42;-0.90;99.90
18882;DHT22;9573;50.948;11.600;2022-12-11T16:11:12;-0.90;99.90
18882;DHT22;9573;50.948;11.600;2022-12-11T16:13:39;-0.90;99.90
18882;DHT22;9573;50.948;11.600;2022-12-11T16:16:08;-0.90;99.90
18882;DHT22;9573;50.948;11.600;2022-12-11T16:18:35;-0.90;99.90
18882;DHT22;9573;50.948;11.600;2022-12-11T16:21:04;-0.90;99.90
18882;DHT22;9573;50.948;11.600;2022-12-11T16:23:31;-0.90;99.90
18882;DHT22;9573;50.948;11.600;2022-12-11T16:26:04;-0.90;99.90
18882;DHT22;9573;50.948;11.600;2022-12-11T16:28:33;-1.00;99.90
18882;DHT22;9573;50.948;11.600;2022-12-11T16:31:01;-1.00;99.90
18882;DHT22;9573;50.948;11.600;2022-12-11T16:33:29;-0.70;99.90
18882;DHT22;9573;50.948;11.600;2022-12-11T16:35:57;0.70;99.90
18882;DHT22;9573;50.948;11.600;2022-12-11T16:38:24;-1.00;99.90
18882;DHT22;9573;50.948;11.600;2022-12-11T16:40:59;-0.90;99.90
18882;DHT22;9573;50.948;11.600;2022-12-11T16:43:26;-1.00;99.90
18882;DHT22;9573;50.948;11.600;2022-12-11T16:45:54;-1.00;99.90
18882;DHT22;9573;50.948;11.600;2022-12-11T16:48:21;-1.00;99.90
18882;DHT22;9573;50.948;11.600;2022-12-11T16:50:51;-0.90;99.90
18882;DHT22;9573;50.948;11.600;2022-12-11T16:53:19;-0.80;99.90
18882;DHT22;9573;50.948;11.600;2022-12-11T16:55:46;-0.80;99.90
18882;DHT22;9573;50.948;11.600;2022-12-11T16:58:14;-0.80;99.90
18882;DHT22;9573;50.948;11.600;2022-12-11T17:00:45;-0.80;99.90
18882;DHT22;9573;50.948;11.600;2022-12-11T17:03:12;-0.70;99.90
18882;DHT22;9573;50.948;11.600;2022-12-11T17:05:40;-0.80;99.90
18882;DHT22;9573;50.948;11.600;2022-12-11T17:08:10;-0.80;99.90
18882;DHT22;9573;50.948;11.600;2022-12-11T17:10:38;-0.80;99.90
18882;DHT22;9573;50.948;11.600;2022-12-11T17:13:06;-0.80;99.90
18882;DHT22;9573;50.948;11.600;2022-12-11T17:15:33;-0.30;99.90
18882;DHT22;9573;50.948;11.600;2022-12-11T17:18:01;-0.80;99.90
18882;DHT22;9573;50.948;11.600;2022-12-11T17:20:28;-0.80;99.90
18882;DHT22;9573;50.948;11.600;2022-12-11T17:22:55;-0.80;99.90
18882;DHT22;9573;50.948;11.600;2022-12-11T17:25:24;-0.80;99.90
18882;DHT22;9573;50.948;11.600;2022-12-11T17:27:54;-0.60;99.90
18882;DHT22;9573;50.948;11.600;2022-12-11T17:30:21;-0.90;99.90
18882;DHT22;9573;50.948;11.600;2022-12-11T17:32:49;-0.90;99.90
18882;DHT22;9573;50.948;11.600;2022-12-11T17:35:16;-1.00;99.90
18882;DHT22;9573;50.948;11.600;2022-12-11T17:37:43;-1.00;99.90
18882;DHT22;9573;50.948;11.600;2022-12-11T17:40:12;-1.00;99.90
18882;DHT22;9573;50.948;11.600;2022-12-11T17:42:40;-1.00;99.90
18882;DHT22;9573;50.948;11.600;2022-12-11T17:45:09;-1.00;99.90
18882;DHT22;9573;50.948;11.600;2022-12-11T17:47:37;-1.00;99.90
18882;DHT22;9573;50.948;11.600;2022-12-11T17:50:05;-1.00;99.90
18882;DHT22;9573;50.948;11.600;2022-12-11T17:52:32;-0.90;99.90
18882;DHT22;9573;50.948;11.600;2022-12-11T17:54:59;-0.90;99.90
18882;DHT22;9573;50.948;11.600;2022-12-11T17:57:27;-1.00;99.90
18882;DHT22;9573;50.948;11.600;2022-12-11T17:59:56;-1.00;99.90
18882;DHT22;9573;50.948;11.600;2022-12-11T18:02:23;-1.00;99.90
18882;DHT22;9573;50.948;11.600;2022-12-11T18:04:51;-1.20;99.90
18882;DHT22;9573;50.948;11.600;2022-12-11T18:07:19;-1.10;99.90
18882;DHT22;9573;50.948;11.600;2022-12-11T18:09:47;-1.20;99.90
18882;DHT22;9573;50.948;11.600;2022-12-11T18:12:14;-1.20;99.90
18882;DHT22;9573;50.948;11.600;2022-12-11T18:14:41;-1.20;99.90
18882;DHT22;9573;50.948;11.600;2022-12-11T18:17:10;-1.20;99.90
18882;DHT22;9573;50.948;11.600;2022-12-11T18:19:37;-1.10;99.90
18882;DHT22;9573;50.948;11.600;2022-12-11T18:22:04;-1.30;99.90
18882;DHT22;9573;50.948;11.600;2022-12-11T18:24:31;-1.30;99.90
18882;DHT22;9573;50.948;11.600;2022-12-11T18:26:59;-1.40;99.90
18882;DHT22;9573;50.948;11.600;2022-12-11T18:29:27;-1.50;99.90
18882;DHT22;9573;50.948;11.600;2022-12-11T18:31:54;-1.50;99.90
18882;DHT22;9573;50.948;11.600;2022-12-11T18:34:22;-1.70;99.90
18882;DHT22;9573;50.948;11.600;2022-12-11T18:36:49;-1.70;99.90
18882;DHT22;9573;50.948;11.600;2022-12-11T18:39:17;-1.60;99.90
18882;DHT22;9573;50.948;11.600;2022-12-11T18:41:44;-1.90;99.90
18882;DHT22;9573;50.948;11.600;2022-12-11T18:44:11;-1.90;99.90
18882;DHT22;9573;50.948;11.600;2022-12-11T18:46:38;-2.00;99.90
18882;DHT22;9573;50.948;11.600;2022-12-11T18:49:05;-1.90;99.90
18882;DHT22;9573;50.948;11.600;2022-12-11T18:51:34;-1.90;99.90
18882;DHT22;9573;50.948;11.600;2022-12-11T18:54:01;-1.90;99.90
18882;DHT22;9573;50.948;11.600;2022-12-11T18:56:29;-1.90;99.90
18882;DHT22;9573;50.948;11.600;2022-12-11T18:58:56;-1.50;99.90
18882;DHT22;9573;50.948;11.600;2022-12-11T19:01:25;-1.70;99.90
18882;DHT22;9573;50.948;11.600;2022-12-11T19:03:54;-1.70;99.90
18882;DHT22;9573;50.948;11.600;2022-12-11T19:06:25;-1.60;99.90
18882;DHT22;9573;50.948;11.600;2022-12-11T19:08:56;-1.50;99.90
18882;DHT22;9573;50.948;11.600;2022-12-11T19:11:27;-1.20;99.90
18882;DHT22;9573;50.948;11.600;2022-12-11T19:13:55;-1.50;99.90
18882;DHT22;9573;50.948;11.600;2022-12-11T19:16:25;-1.40;99.90
18882;DHT22;9573;50.948;11.600;2022-12-11T19:18:54;-1.40;99.90
18882;DHT22;9573;50.948;11.600;2022-12-11T19:21:23;-1.30;99.90
18882;DHT22;9573;50.948;11.600;2022-12-11T19:23:50;-0.60;99.90
18882;DHT22;9573;50.948;11.600;2022-12-11T19:26:21;-1.00;99.90
18882;DHT22;9573;50.948;11.600;2022-12-11T19:28:50;-1.10;99.90
18882;DHT22;9573;50.948;11.600;2022-12-11T19:31:22;-1.00;99.90
18882;DHT22;9573;50.948;11.600;2022-12-11T19:33:50;-1.10;99.90
18882;DHT22;9573;50.948;11.600;2022-12-11T19:36:19;-1.20;99.90
18882;DHT22;9573;50.948;11.600;2022-12-11T19:38:49;-1.30;99.90
18882;DHT22;9573;50.948;11.600;2022-12-11T19:41:22;-1.30;99.90
18882;DHT22;9573;50.948;11.600;2022-12-11T19:43:52;-1.40;99.90
18882;DHT22;9573;50.948;11.600;2022-12-11T19:46:20;-1.40;99.90
18882;DHT22;9573;50.948;11.600;2022-12-11T19:48:49;-1.40;99.90
18882;DHT22;9573;50.948;11.600;2022-12-11T19:51:19;-1.40;99.90
18882;DHT22;9573;50.948;11.600;2022-12-11T19:53:48;-1.40;99.90
18882;DHT22;9573;50.948;11.600;2022-12-11T19:56:18;-1.30;99.90
18882;DHT22;9573;50.948;11.600;2022-12-11T19:58:48;-1.30;99.90
18882;DHT22;9573;50.948;11.600;2022-12-11T20:01:20;-1.30;99.90
18882;DHT22;9573;50.948;11.600;2022-12-11T20:03:50;-1.20;99.90
18882;DHT22;9573;50.948;11.600;2022-12-11T20:06:20;-0.30;99.90
18882;DHT22;9573;50.948;11.600;2022-12-11T20:08:57;-1.20;99.90
18882;DHT22;9573;50.948;11.600;2022-12-11T20:11:25;-1.20;99.90
18882;DHT22;9573;50.948;11.600;2022-12-11T20:13:57;-1.30;99.90
18882;DHT22;9573;50.948;11.600;2022-12-11T20:16:25;-1.30;99.90
18882;DHT22;9573;50.948;11.600;2022-12-11T20:18:52;-1.30;99.90
18882;DHT22;9573;50.948;11.600;2022-12-11T20:21:22;-1.30;99.90
18882;DHT22;9573;50.948;11.600;2022-12-11T20:23:49;-1.30;99.90
18882;DHT22;9573;50.948;11.600;2022-12-11T20:26:19;-1.30;99.90
18882;DHT22;9573;50.948;11.600;2022-12-11T20:28:49;-1.20;99.90
18882;DHT22;9573;50.948;11.600;2022-12-11T20:31:20;-1.10;99.90
18882;DHT22;9573;50.948;11.600;2022-12-11T20:33:50;-1.20;99.90
18882;DHT22;9573;50.948;11.600;2022-12-11T20:36:22;-1.30;99.90
18882;DHT22;9573;50.948;11.600;2022-12-11T20:38:51;-1.30;99.90
18882;DHT22;9573;50.948;11.600;2022-12-11T20:41:20;-3.80;99.90
18882;DHT22;9573;50.948;11.600;2022-12-11T20:43:49;-0.80;99.90
18882;DHT22;9573;50.948;11.600;2022-12-11T20:46:20;-1.40;99.90
18882;DHT22;9573;50.948;11.600;2022-12-11T20:48:48;-1.40;99.90
18882;DHT22;9573;50.948;11.600;2022-12-11T20:51:17;-1.40;99.90
18882;DHT22;9573;50.948;11.600;2022-12-11T20:53:46;-1.30;99.90
18882;DHT22;9573;50.948;11.600;2022-12-11T20:56:15;-1.30;99.90
18882;DHT22;9573;50.948;11.600;2022-12-11T20:58:46;-1.30;99.90
